createdAt,value
2018-11-28T00:01:50.232Z,5.27
2018-11-28T00:04:46.540Z,6.43
2018-11-28T00:07:43.477Z,5.73
2018-11-28T00:10:39.795Z,6.00
2018-11-28T00:13:37.155Z,5.20
2018-11-28T00:16:34.964Z,5.53
2018-11-28T00:19:33.512Z,5.87
2018-11-28T00:22:30.034Z,6.60
2018-11-28T00:25:28.722Z,5.37
2018-11-28T00:28:26.220Z,5.43
2018-11-28T00:31:23.142Z,5.57
2018-11-28T00:34:21.566Z,5.10
2018-11-28T00:37:18.470Z,5.77
2018-11-28T00:40:14.992Z,6.17
2018-11-28T00:43:11.530Z,5.20
2018-11-28T00:46:08.248Z,5.30
2018-11-28T00:49:04.960Z,5.80
2018-11-28T00:52:02.316Z,4.77
2018-11-28T00:54:59.084Z,4.70
2018-11-28T00:57:55.568Z,5.17
2018-11-28T01:00:52.156Z,5.47
2018-11-28T01:03:49.854Z,4.97
2018-11-28T01:06:46.792Z,5.70
2018-11-28T01:09:43.522Z,4.93
2018-11-28T01:12:40.246Z,4.73
2018-11-28T01:15:37.845Z,5.87
2018-11-28T01:18:34.752Z,5.20
2018-11-28T01:21:31.460Z,5.53
2018-11-28T01:24:28.208Z,5.03
2018-11-28T01:27:24.496Z,5.80
2018-11-28T01:30:36.086Z,5.73
2018-11-28T01:33:32.595Z,4.40
2018-11-28T01:36:29.324Z,4.90
2018-11-28T01:39:25.832Z,4.37
2018-11-28T01:42:22.612Z,4.87
2018-11-28T01:45:19.276Z,4.80
2018-11-28T01:48:16.017Z,4.97
2018-11-28T01:51:12.541Z,5.37
2018-11-28T01:54:09.067Z,4.57
2018-11-28T01:57:06.860Z,5.00
2018-11-28T02:00:03.339Z,5.23
2018-11-28T02:03:00.065Z,4.77
2018-11-28T02:05:56.789Z,5.67
2018-11-28T02:08:53.534Z,5.00
2018-11-28T02:11:50.037Z,4.47
2018-11-28T02:14:46.567Z,5.57
2018-11-28T02:17:42.918Z,5.17
2018-11-28T02:20:40.441Z,4.23
2018-11-28T02:23:37.013Z,4.83
2018-11-28T02:26:34.511Z,4.53
2018-11-28T02:29:32.489Z,4.87
2018-11-28T02:32:29.007Z,5.10
2018-11-28T02:35:27.218Z,5.07
2018-11-28T02:38:24.556Z,4.40
2018-11-28T02:41:21.079Z,4.50
2018-11-28T02:44:17.796Z,4.63
2018-11-28T02:47:14.589Z,5.03
2018-11-28T02:50:11.058Z,4.20
2018-11-28T02:53:07.561Z,4.83
2018-11-28T02:56:04.289Z,4.53
2018-11-28T02:59:00.824Z,5.40
2018-11-28T03:01:57.741Z,4.47
2018-11-28T03:04:54.251Z,5.73
2018-11-28T03:07:50.781Z,5.00
2018-11-28T03:10:48.541Z,5.00
2018-11-28T03:13:45.068Z,4.40
2018-11-28T03:16:41.791Z,4.30
2018-11-28T03:19:39.370Z,4.20
2018-11-28T03:22:36.087Z,4.80
2018-11-28T03:25:32.658Z,4.20
2018-11-28T03:28:29.350Z,4.40
2018-11-28T03:31:25.873Z,4.57
2018-11-28T03:34:22.373Z,5.10
2018-11-28T03:37:19.112Z,4.77
2018-11-28T03:40:16.283Z,4.80
2018-11-28T03:43:13.615Z,4.77
2018-11-28T03:46:10.333Z,4.90
2018-11-28T03:49:07.064Z,5.00
2018-11-28T03:52:04.832Z,4.70
2018-11-28T03:55:02.383Z,4.03
2018-11-28T03:58:02.026Z,4.47
2018-11-28T04:00:58.360Z,4.67
2018-11-28T04:03:56.131Z,4.27
2018-11-28T04:06:52.636Z,4.30
2018-11-28T04:09:49.362Z,4.20
2018-11-28T04:12:45.888Z,4.73
2018-11-28T04:15:43.858Z,3.90
2018-11-28T04:18:41.420Z,4.03
2018-11-28T04:21:39.042Z,4.57
2018-11-28T04:24:36.895Z,4.60
2018-11-28T04:27:33.285Z,4.07
2018-11-28T04:30:32.720Z,4.50
2018-11-28T04:33:29.304Z,4.67
2018-11-28T04:36:25.763Z,4.57
2018-11-28T04:39:23.747Z,4.43
2018-11-28T04:42:20.260Z,4.27
2018-11-28T04:45:17.824Z,4.40
2018-11-28T04:48:14.768Z,4.57
2018-11-28T04:51:12.110Z,4.57
2018-11-28T04:54:08.838Z,4.77
2018-11-28T04:57:05.574Z,3.97
2018-11-28T05:00:02.284Z,3.80
2018-11-28T05:02:58.818Z,4.60
2018-11-28T05:05:56.586Z,4.37
2018-11-28T05:08:53.088Z,4.17
2018-11-28T05:11:50.071Z,4.90
2018-11-28T05:14:46.552Z,4.73
2018-11-28T05:17:44.108Z,4.80
2018-11-28T05:20:45.030Z,4.70
2018-11-28T05:23:43.412Z,4.00
2018-11-28T05:26:39.936Z,4.53
2018-11-28T05:29:36.874Z,4.77
2018-11-28T05:32:33.386Z,4.43
2018-11-28T05:35:32.005Z,3.93
2018-11-28T05:38:29.574Z,4.20
2018-11-28T05:41:26.540Z,4.20
2018-11-28T05:44:23.018Z,4.63
2018-11-28T05:47:20.791Z,5.17
2018-11-28T05:50:17.516Z,5.80
2018-11-28T05:53:14.872Z,4.57
2018-11-28T05:56:11.597Z,4.73
2018-11-28T05:59:08.120Z,4.27
2018-11-28T06:02:05.891Z,4.57
2018-11-28T06:05:02.443Z,4.00
2018-11-28T06:07:59.142Z,3.97
2018-11-28T06:10:55.859Z,4.30
2018-11-28T06:13:52.322Z,3.57
2018-11-28T06:16:49.104Z,3.30
2018-11-28T06:19:45.764Z,3.57
2018-11-28T06:22:42.370Z,3.00
2018-11-28T06:25:39.288Z,3.10
2018-11-28T06:28:35.811Z,3.40
2018-11-28T06:31:32.535Z,3.53
2018-11-28T06:34:29.274Z,3.33
2018-11-28T06:37:25.981Z,3.30
2018-11-28T06:40:25.777Z,3.07
2018-11-28T06:43:23.201Z,2.60
2018-11-28T06:46:19.919Z,3.27
2018-11-28T06:49:16.643Z,3.07
2018-11-28T06:52:13.181Z,2.77
2018-11-28T06:55:09.698Z,2.57
2018-11-28T06:58:06.217Z,2.90
2018-11-28T07:01:03.767Z,2.40
2018-11-28T07:04:00.282Z,2.50
2018-11-28T07:06:56.829Z,3.23
2018-11-28T07:09:54.584Z,2.23
2018-11-28T07:12:52.132Z,2.33
2018-11-28T07:15:48.660Z,2.30
2018-11-28T07:18:51.254Z,2.60
2018-11-28T07:21:47.777Z,2.33
2018-11-28T07:24:45.324Z,2.60
2018-11-28T07:27:45.324Z,2.30
2018-11-28T07:30:39.409Z,2.00
2018-11-28T07:33:35.939Z,2.30
2018-11-28T07:36:33.291Z,2.73
2018-11-28T07:39:30.014Z,2.27
2018-11-28T07:42:28.394Z,2.00
2018-11-28T07:45:25.964Z,2.23
2018-11-28T07:48:22.936Z,1.97
2018-11-28T07:51:19.208Z,2.27
2018-11-28T07:54:15.727Z,1.67
2018-11-28T07:57:12.255Z,1.63
2018-11-28T08:00:09.807Z,2.10
2018-11-28T08:03:07.173Z,2.23
2018-11-28T08:06:04.949Z,2.03
2018-11-28T08:09:05.629Z,2.50
2018-11-28T08:12:02.375Z,2.00
2018-11-28T08:14:58.889Z,1.60
2018-11-28T08:17:56.435Z,1.70
2018-11-28T08:20:52.977Z,1.73
2018-11-28T08:23:49.681Z,1.60
2018-11-28T08:26:46.208Z,1.80
2018-11-28T08:29:44.873Z,2.10
2018-11-28T08:32:41.353Z,1.60
2018-11-28T08:35:38.056Z,2.50
2018-11-28T08:38:34.578Z,2.10
2018-11-28T08:41:31.292Z,1.73
2018-11-28T08:44:27.603Z,1.80
2018-11-28T08:47:25.167Z,1.80
2018-11-28T08:50:25.706Z,1.93
2018-11-28T08:53:22.620Z,1.87
2018-11-28T08:56:19.748Z,1.97
2018-11-28T08:59:16.252Z,1.90
2018-11-28T09:02:12.792Z,2.53
2018-11-28T09:05:09.430Z,1.70
2018-11-28T09:08:06.650Z,1.60
2018-11-28T09:11:03.993Z,1.97
2018-11-28T09:14:04.428Z,1.73
2018-11-28T09:16:57.236Z,2.20
2018-11-28T09:19:53.987Z,1.70
2018-11-28T09:22:51.571Z,1.67
2018-11-28T09:25:48.044Z,1.67
2018-11-28T09:28:44.861Z,1.50
2018-11-28T09:31:52.797Z,2.20
2018-11-28T09:34:50.569Z,1.93
2018-11-28T09:37:46.913Z,1.90
2018-11-28T09:40:43.813Z,1.77
2018-11-28T09:43:41.378Z,1.40
2018-11-28T09:46:38.099Z,1.97
2018-11-28T09:49:34.614Z,1.63
2018-11-28T09:52:32.389Z,1.60
2018-11-28T09:55:31.831Z,1.67
2018-11-28T09:58:28.345Z,1.77
2018-11-28T10:01:24.876Z,1.77
2018-11-28T10:04:22.222Z,1.70
2018-11-28T10:07:18.732Z,1.50
2018-11-28T10:10:15.261Z,1.97
2018-11-28T10:13:12.825Z,1.30
2018-11-28T10:16:09.120Z,2.80
2018-11-28T10:19:05.853Z,1.80
2018-11-28T10:22:02.590Z,1.43
2018-11-28T10:24:58.894Z,1.77
2018-11-28T10:27:56.486Z,1.90
2018-11-28T10:30:54.236Z,2.60
2018-11-28T10:33:51.170Z,1.57
2018-11-28T10:36:47.473Z,1.60
2018-11-28T10:39:44.817Z,2.03
2018-11-28T10:42:41.351Z,1.70
2018-11-28T10:45:39.126Z,1.70
2018-11-28T10:48:36.684Z,1.47
2018-11-28T10:51:33.409Z,1.80
2018-11-28T10:54:29.929Z,1.50
2018-11-28T10:57:26.877Z,1.63
2018-11-28T11:00:30.411Z,1.57
2018-11-28T11:03:32.848Z,2.10
2018-11-28T11:06:35.439Z,1.43
2018-11-28T11:09:38.004Z,1.40
2018-11-28T11:12:40.368Z,1.40
2018-11-28T11:15:37.118Z,1.50
2018-11-28T11:18:33.635Z,1.40
2018-11-28T11:21:30.372Z,1.60
2018-11-28T11:24:26.859Z,1.43
2018-11-28T11:27:23.600Z,1.57
2018-11-28T11:30:23.021Z,1.27
2018-11-28T11:33:20.398Z,1.60
2018-11-28T11:36:16.914Z,1.30
2018-11-28T11:39:13.638Z,1.33
2018-11-28T11:42:11.005Z,1.20
2018-11-28T11:45:08.536Z,1.60
2018-11-28T11:48:05.089Z,1.40
2018-11-28T11:51:02.001Z,1.47
2018-11-28T11:53:58.305Z,1.53
2018-11-28T11:56:55.247Z,2.87
2018-11-28T11:59:52.606Z,1.30
2018-11-28T12:02:49.120Z,1.27
2018-11-28T12:05:45.772Z,1.43
2018-11-28T12:08:43.209Z,1.30
2018-11-28T12:11:39.530Z,1.53
2018-11-28T12:14:37.094Z,1.70
2018-11-28T12:17:33.812Z,1.50
2018-11-28T12:20:32.434Z,1.83
2018-11-28T12:23:29.561Z,1.77
2018-11-28T12:26:27.316Z,1.40
2018-11-28T12:29:24.915Z,1.73
2018-11-28T12:32:22.680Z,1.30
2018-11-28T12:35:20.018Z,1.20
2018-11-28T12:38:17.782Z,1.67
2018-11-28T12:41:14.493Z,1.93
2018-11-28T12:44:11.226Z,1.27
2018-11-28T12:47:08.588Z,1.30
2018-11-28T12:50:06.288Z,1.40
2018-11-28T12:53:03.752Z,1.53
2018-11-28T12:56:00.641Z,1.30
2018-11-28T12:58:56.975Z,1.10
2018-11-28T13:01:54.319Z,1.43
2018-11-28T13:04:50.812Z,1.10
2018-11-28T13:07:48.408Z,1.30
2018-11-28T13:10:48.673Z,1.40
2018-11-28T13:13:46.446Z,1.30
2018-11-28T13:16:43.841Z,1.47
2018-11-28T13:19:40.531Z,1.37
2018-11-28T13:22:36.969Z,1.10
2018-11-28T13:25:34.610Z,1.10
2018-11-28T13:28:31.779Z,1.37
2018-11-28T13:31:31.402Z,1.30
2018-11-28T13:34:27.927Z,1.00
2018-11-28T13:37:27.582Z,1.37
2018-11-28T13:40:24.942Z,1.37
2018-11-28T13:43:21.643Z,1.13
2018-11-28T13:46:20.069Z,0.83
2018-11-28T13:49:16.799Z,1.60
2018-11-28T13:52:13.513Z,1.00
2018-11-28T13:55:37.729Z,1.30
2018-11-28T13:58:07.405Z,1.30
2018-11-28T14:01:03.882Z,1.00
2018-11-28T14:04:01.471Z,0.97
2018-11-28T14:06:58.610Z,0.90
2018-11-28T14:09:56.603Z,1.30
2018-11-28T14:12:53.137Z,1.30
2018-11-28T14:15:50.468Z,1.27
2018-11-28T14:18:48.181Z,1.43
2018-11-28T14:21:45.151Z,1.00
2018-11-28T14:24:41.684Z,1.17
2018-11-28T14:27:39.506Z,1.10
2018-11-28T14:30:38.065Z,1.00
2018-11-28T14:33:34.395Z,0.93
2018-11-28T14:36:31.132Z,1.10
2018-11-28T14:39:27.623Z,1.27
2018-11-28T14:42:24.373Z,0.90
2018-11-28T14:45:22.961Z,1.33
2018-11-28T14:48:20.318Z,1.20
2018-11-28T14:51:17.860Z,0.80
2018-11-28T14:54:14.806Z,1.07
2018-11-28T14:57:12.998Z,1.10
2018-11-28T15:00:10.766Z,1.13
2018-11-28T15:03:15.033Z,0.70
2018-11-28T15:06:31.731Z,1.20
2018-11-28T15:09:35.464Z,0.87
2018-11-28T15:12:33.193Z,0.90
2018-11-28T15:15:29.520Z,0.97
2018-11-28T15:21:28.595Z,0.77
2018-11-28T15:24:25.107Z,0.80
2018-11-28T15:27:22.672Z,1.50
2018-11-28T15:30:23.377Z,0.83
2018-11-28T15:33:21.556Z,0.87
2018-11-28T15:36:18.099Z,0.60
2018-11-28T15:39:14.809Z,0.60
2018-11-28T15:42:11.314Z,0.77
2018-11-28T15:45:07.621Z,0.40
2018-11-28T15:48:04.383Z,0.70
2018-11-28T15:51:02.758Z,0.90
2018-11-28T15:53:59.273Z,0.80
2018-11-28T15:56:55.812Z,0.87
2018-11-28T15:59:52.533Z,0.73
2018-11-28T16:02:49.875Z,1.87
2018-11-28T16:05:46.608Z,1.00
2018-11-28T16:08:42.898Z,0.60
2018-11-28T16:11:42.561Z,0.90
2018-11-28T16:14:38.880Z,0.50
2018-11-28T16:17:36.233Z,0.70
2018-11-28T16:20:34.761Z,0.57
2018-11-28T16:23:30.989Z,0.60
2018-11-28T16:26:27.445Z,0.77
2018-11-28T16:29:25.025Z,0.40
2018-11-28T16:32:21.537Z,0.40
2018-11-28T16:35:18.053Z,1.47
2018-11-28T16:38:14.569Z,1.20
2018-11-28T16:41:12.369Z,0.80
2018-11-28T16:44:09.615Z,0.80
2018-11-28T16:47:07.031Z,0.60
2018-11-28T16:50:04.612Z,0.70
2018-11-28T16:53:02.190Z,0.50
2018-11-28T16:55:59.533Z,0.80
2018-11-28T16:58:56.657Z,0.63
2018-11-28T17:01:53.819Z,0.50
2018-11-28T17:04:50.319Z,0.50
2018-11-28T17:07:46.631Z,0.50
2018-11-28T17:10:45.043Z,0.70
2018-11-28T17:13:41.766Z,0.50
2018-11-28T17:16:38.288Z,0.50
2018-11-28T17:19:34.806Z,0.53
2018-11-28T17:22:32.783Z,0.83
2018-11-28T17:25:31.183Z,0.93
2018-11-28T17:28:28.746Z,1.03
2018-11-28T17:31:25.286Z,0.77
2018-11-28T17:34:23.860Z,0.60
2018-11-28T17:37:22.079Z,0.60
2018-11-28T17:40:20.387Z,0.60
2018-11-28T17:43:17.173Z,0.60
2018-11-28T17:46:21.435Z,0.60
2018-11-28T17:49:17.950Z,0.70
2018-11-28T17:52:14.458Z,0.50
2018-11-28T17:55:12.866Z,0.70
2018-11-28T17:58:09.377Z,0.40
2018-11-28T18:01:06.745Z,0.60
2018-11-28T18:04:03.672Z,0.73
2018-11-28T18:07:00.003Z,0.60
2018-11-28T18:09:56.700Z,0.67
2018-11-28T18:12:53.232Z,0.73
2018-11-28T18:15:49.747Z,0.73
2018-11-28T18:18:46.469Z,0.60
2018-11-28T18:21:47.397Z,0.60
2018-11-28T18:24:43.694Z,0.73
2018-11-28T18:27:44.412Z,0.70
2018-11-28T18:30:40.687Z,1.00
2018-11-28T18:33:37.426Z,0.77
2018-11-28T18:36:35.001Z,0.50
2018-11-28T18:39:36.299Z,0.60
2018-11-28T18:42:33.248Z,0.70
2018-11-28T18:45:31.861Z,1.00
2018-11-28T18:48:29.452Z,1.03
2018-11-28T18:51:26.149Z,0.80
2018-11-28T18:54:22.643Z,0.77
2018-11-28T18:57:23.356Z,1.03
2018-11-28T19:00:22.822Z,0.80
2018-11-28T19:03:23.283Z,0.80
2018-11-28T19:06:21.467Z,0.70
2018-11-28T19:09:25.933Z,0.90
2018-11-28T19:12:22.653Z,0.87
2018-11-28T19:15:21.265Z,0.83
2018-11-28T19:18:17.692Z,0.90
2018-11-28T19:21:14.329Z,1.37
2018-11-28T19:24:11.049Z,1.23
2018-11-28T19:27:11.930Z,1.07
2018-11-28T19:30:08.451Z,1.20
2018-11-28T19:33:04.797Z,1.20
2018-11-28T19:36:01.499Z,1.13
2018-11-28T19:38:58.017Z,1.53
2018-11-28T19:41:54.519Z,1.40
2018-11-28T19:44:52.288Z,2.30
2018-11-28T19:47:49.867Z,1.00
2018-11-28T19:50:48.462Z,1.20
2018-11-28T19:53:44.986Z,0.90
2018-11-28T19:56:41.712Z,1.37
2018-11-28T19:59:38.235Z,0.90
2018-11-28T20:02:35.171Z,1.93
2018-11-28T20:05:32.750Z,1.13
2018-11-28T20:08:29.255Z,0.90
2018-11-28T20:11:26.616Z,0.80
2018-11-28T20:14:23.257Z,1.03
2018-11-28T20:17:19.841Z,0.90
2018-11-28T20:20:17.341Z,1.40
2018-11-28T20:23:13.731Z,1.00
2018-11-28T20:26:10.461Z,1.03
2018-11-28T20:29:06.762Z,1.23
2018-11-28T20:32:03.285Z,1.10
2018-11-28T20:35:02.974Z,1.27
2018-11-28T20:37:56.727Z,1.20
2018-11-28T20:40:53.265Z,1.10
2018-11-28T20:43:51.027Z,1.10
2018-11-28T20:46:48.511Z,1.20
2018-11-28T20:49:47.010Z,1.00
2018-11-28T20:52:43.510Z,0.80
2018-11-28T20:55:40.443Z,1.20
2018-11-28T20:58:37.169Z,0.90
2018-11-28T21:01:34.740Z,1.20
2018-11-28T21:04:31.385Z,1.10
2018-11-28T21:07:27.979Z,1.27
2018-11-28T21:10:31.179Z,1.47
2018-11-28T21:13:27.915Z,1.23
2018-11-28T21:16:25.267Z,1.17
2018-11-28T21:19:21.574Z,0.87
2018-11-28T21:22:18.291Z,1.13
2018-11-28T21:25:15.225Z,1.17
2018-11-28T21:28:11.802Z,1.00
2018-11-28T21:31:08.273Z,1.40
2018-11-28T21:34:05.623Z,1.23
2018-11-28T21:37:02.973Z,1.10
2018-11-28T21:40:04.849Z,1.37
2018-11-28T21:43:02.283Z,1.10
2018-11-28T21:46:00.682Z,1.33
2018-11-28T21:48:58.283Z,1.27
2018-11-28T21:51:55.743Z,1.07
2018-11-28T21:54:52.551Z,1.30
2018-11-28T21:57:49.046Z,1.13
2018-11-28T22:00:45.354Z,1.40
2018-11-28T22:03:41.882Z,1.03
2018-11-28T22:06:39.237Z,1.30
2018-11-28T22:09:39.931Z,1.40
2018-11-28T22:12:36.433Z,1.20
2018-11-28T22:15:32.758Z,1.17
2018-11-28T22:18:30.331Z,1.43
2018-11-28T22:21:26.838Z,1.30
2018-11-28T22:24:23.358Z,0.93
2018-11-28T22:27:19.661Z,0.80
2018-11-28T22:30:16.196Z,1.00
2018-11-28T22:33:13.967Z,1.40
2018-11-28T22:36:14.040Z,1.83
2018-11-28T22:39:11.591Z,1.30
2018-11-28T22:42:08.525Z,1.07
2018-11-28T22:45:05.047Z,1.07
2018-11-28T22:48:02.358Z,1.30
2018-11-28T22:50:59.123Z,1.33
2018-11-28T22:53:59.195Z,1.00
2018-11-28T22:56:56.119Z,1.30
2018-11-28T22:59:52.448Z,1.30
2018-11-28T23:03:24.039Z,1.40
2018-11-28T23:06:20.584Z,1.23
2018-11-28T23:09:20.225Z,1.50
2018-11-28T23:12:16.738Z,1.43
2018-11-28T23:15:14.094Z,1.40
2018-11-28T23:18:10.871Z,1.40
2018-11-28T23:21:07.547Z,1.20
2018-11-28T23:24:04.476Z,1.03
2018-11-28T23:27:01.624Z,1.20
2018-11-28T23:29:58.356Z,1.40
2018-11-28T23:32:55.915Z,1.30
2018-11-28T23:35:52.438Z,1.33
2018-11-28T23:38:49.164Z,1.70
2018-11-28T23:41:45.479Z,1.77
2018-11-28T23:44:42.194Z,1.47
2018-11-28T23:47:38.522Z,1.37
2018-11-28T23:50:36.078Z,1.40
2018-11-28T23:53:32.586Z,1.07
2018-11-28T23:56:29.324Z,1.27
2018-11-28T23:59:27.102Z,1.40
